Time;durP1;ratioP1;P1;durP2;ratioP2;P2;SDS_P1;SDS_P2;PMS_P1;PMS_P2;Temp;Humidity;BMP_temperature;BMP_pressure;BME280_temperature;BME280_humidity;BME280_pressure;Samples;Min_cycle;Max_cycle;Signal;HPM_P1;HPM_P2
2023/09/22 00:02:00;;;;;;;0.90;0.70;;;24.80;57.90;;;;;;4986764;28;20450;-44
2023/09/22 00:04:26;;;;;;;1.13;0.70;;;24.60;57.40;;;;;;4993509;28;20450;-44
2023/09/22 00:06:51;;;;;;;1.93;0.60;;;24.40;57.30;;;;;;4993074;28;20446;-46
2023/09/22 00:09:17;;;;;;;2.37;0.90;;;24.20;57.90;;;;;;4992262;28;20662;-46
2023/09/22 00:11:42;;;;;;;0.80;0.73;;;24.10;58.30;;;;;;4991052;28;20289;-45
2023/09/22 00:14:08;;;;;;;1.57;1.00;;;23.80;58.40;;;;;;4987495;28;21026;-45
2023/09/22 00:16:34;;;;;;;1.17;1.00;;;23.20;58.80;;;;;;4988218;28;20198;-45
2023/09/22 00:19:04;;;;;;;2.20;0.70;;;22.90;59.30;;;;;;4984042;28;20519;-44
2023/09/22 00:21:31;;;;;;;1.53;0.90;;;22.60;59.90;;;;;;4991154;28;20643;-44
2023/09/22 00:23:56;;;;;;;1.10;1.00;;;22.20;60.50;;;;;;4987236;28;20448;-45
2023/09/22 00:26:22;;;;;;;0.97;0.93;;;22.10;60.90;;;;;;4992803;28;20442;-45
2023/09/22 00:28:48;;;;;;;1.20;1.10;;;22.10;61.40;;;;;;4989753;28;20631;-47
2023/09/22 00:31:13;;;;;;;2.00;0.80;;;22.20;61.60;;;;;;4986177;28;20199;-44
2023/09/22 00:33:39;;;;;;;1.53;0.80;;;22.20;61.40;;;;;;4990985;28;20229;-45
2023/09/22 00:36:05;;;;;;;1.80;1.10;;;22.40;61.70;;;;;;4993294;28;20199;-45
2023/09/22 00:38:30;;;;;;;1.17;1.00;;;22.60;62.70;;;;;;4993262;28;20226;-44
2023/09/22 00:40:56;;;;;;;1.53;0.80;;;22.60;61.30;;;;;;4993695;28;20426;-44
2023/09/22 00:43:21;;;;;;;1.63;0.90;;;22.60;60.80;;;;;;4993097;28;20205;-44
2023/09/22 00:45:51;;;;;;;3.50;1.43;;;22.60;60.80;;;;;;4993187;28;20668;-44
2023/09/22 00:48:22;;;;;;;2.13;0.90;;;22.60;60.70;;;;;;4992128;28;20206;-44
2023/09/22 00:50:49;;;;;;;3.70;1.10;;;22.60;60.50;;;;;;4990364;28;20450;-44
2023/09/22 00:53:17;;;;;;;0.90;0.80;;;22.70;60.70;;;;;;4994115;28;20492;-44
2023/09/22 00:55:44;;;;;;;1.00;0.90;;;22.70;60.70;;;;;;4993459;28;20441;-44
2023/09/22 00:58:11;;;;;;;1.30;0.70;;;22.60;61.10;;;;;;4991950;28;20513;-44
2023/09/22 01:00:38;;;;;;;1.00;0.87;;;22.50;61.20;;;;;;4989473;28;20444;-44
2023/09/22 01:03:04;;;;;;;1.23;0.63;;;22.40;62.30;;;;;;4991399;28;20453;-44
2023/09/22 01:05:34;;;;;;;0.90;0.70;;;22.10;61.90;;;;;;4989938;28;20477;-44
2023/09/22 01:08:00;;;;;;;1.10;1.00;;;21.80;61.90;;;;;;4980791;28;20253;-44
2023/09/22 01:10:35;;;;;;;0.80;0.80;;;21.40;60.80;;;;;;4985666;28;20453;-45
2023/09/22 01:13:00;;;;;;;1.23;1.13;;;21.00;62.10;;;;;;4990227;28;20229;-44
2023/09/22 01:15:26;;;;;;;1.00;0.80;;;20.80;63.20;;;;;;4990321;28;20962;-47
2023/09/22 01:17:51;;;;;;;1.50;1.17;;;20.60;63.30;;;;;;4991101;28;20568;-45
2023/09/22 01:20:17;;;;;;;1.40;1.30;;;20.60;64.00;;;;;;4986652;28;20194;-45
2023/09/22 01:22:43;;;;;;;1.67;1.10;;;20.80;63.70;;;;;;4992804;28;20195;-45
2023/09/22 01:25:09;;;;;;;1.23;0.90;;;21.10;63.20;;;;;;4986424;28;20300;-44
2023/09/22 01:27:34;;;;;;;1.13;0.90;;;21.30;62.80;;;;;;4988910;28;20441;-45
2023/09/22 01:30:00;;;;;;;1.20;1.10;;;21.40;62.30;;;;;;4989555;28;20199;-46
2023/09/22 01:32:25;;;;;;;1.30;1.10;;;21.50;61.70;;;;;;4990654;28;20677;-44
2023/09/22 01:34:53;;;;;;;2.53;1.30;;;21.70;61.60;;;;;;4989859;28;20353;-49
2023/09/22 01:37:26;;;;;;;1.20;1.10;;;21.80;61.20;;;;;;4990787;28;20674;-48
2023/09/22 01:39:51;;;;;;;1.10;1.00;;;21.90;61.00;;;;;;4990928;28;20543;-44
2023/09/22 01:42:17;;;;;;;1.10;1.00;;;21.90;60.80;;;;;;4992960;28;20517;-45
2023/09/22 01:44:43;;;;;;;1.50;1.00;;;22.00;61.40;;;;;;4991261;28;20198;-45
2023/09/22 01:47:08;;;;;;;1.60;1.00;;;22.10;61.40;;;;;;4991754;28;20205;-45
2023/09/22 01:49:34;;;;;;;1.10;0.90;;;22.10;61.40;;;;;;4988705;28;20274;-46
2023/09/22 01:52:01;;;;;;;1.20;0.70;;;22.10;61.50;;;;;;4986591;28;20201;-47
2023/09/22 01:54:26;;;;;;;5.27;1.13;;;22.20;61.70;;;;;;4991075;28;20741;-44
2023/09/22 01:56:52;;;;;;;2.00;0.93;;;22.20;61.80;;;;;;4989967;28;20584;-46
2023/09/22 01:59:17;;;;;;;0.97;0.87;;;22.20;62.30;;;;;;4991296;28;20234;-45
2023/09/22 02:01:43;;;;;;;1.47;0.90;;;22.20;62.40;;;;;;4988046;28;20202;-44
2023/09/22 02:04:08;;;;;;;0.90;0.90;;;22.20;62.30;;;;;;4986018;28;20541;-46
2023/09/22 02:06:34;;;;;;;1.27;1.17;;;22.20;62.20;;;;;;4988215;28;21595;-45
2023/09/22 02:08:59;;;;;;;0.70;0.70;;;22.20;61.90;;;;;;4984934;28;20333;-44
2023/09/22 02:11:25;;;;;;;1.20;1.10;;;22.20;62.10;;;;;;4988512;28;20202;-46
2023/09/22 02:13:50;;;;;;;1.20;1.10;;;22.10;62.40;;;;;;4989074;28;20194;-45
2023/09/22 02:16:16;;;;;;;2.30;1.00;;;22.10;62.50;;;;;;4990225;28;20556;-44
2023/09/22 02:18:42;;;;;;;2.00;1.03;;;22.10;62.30;;;;;;4988002;28;20782;-45
2023/09/22 02:21:07;;;;;;;1.10;1.00;;;22.10;61.90;;;;;;4988363;28;20195;-45
2023/09/22 02:23:33;;;;;;;1.37;0.90;;;22.10;62.50;;;;;;4989716;28;20234;-45
2023/09/22 02:26:06;;;;;;;1.77;1.00;;;22.10;61.70;;;;;;4987660;28;20278;-47
2023/09/22 02:28:32;;;;;;;0.97;0.87;;;22.20;61.80;;;;;;4987848;28;20198;-46
2023/09/22 02:30:57;;;;;;;2.00;0.90;;;22.20;61.70;;;;;;4989062;28;20500;-45
2023/09/22 02:33:23;;;;;;;1.03;0.90;;;22.10;61.30;;;;;;4987530;28;20194;-44
2023/09/22 02:35:48;;;;;;;1.10;1.00;;;22.00;60.80;;;;;;4989313;28;20602;-46
2023/09/22 02:38:14;;;;;;;1.73;0.90;;;21.90;61.10;;;;;;4988886;28;20245;-44
2023/09/22 02:40:40;;;;;;;2.00;1.47;;;21.80;61.20;;;;;;4990686;28;20580;-45
2023/09/22 02:43:06;;;;;;;1.90;0.97;;;21.80;61.60;;;;;;4987877;28;20191;-45
2023/09/22 02:45:32;;;;;;;2.10;0.90;;;21.90;61.70;;;;;;4980303;28;20206;-44
2023/09/22 02:47:57;;;;;;;1.00;0.90;;;21.80;62.70;;;;;;4988612;28;20488;-46
2023/09/22 02:50:23;;;;;;;1.20;1.00;;;21.80;61.70;;;;;;4988864;28;20508;-45
2023/09/22 02:52:49;;;;;;;1.17;1.07;;;21.80;61.80;;;;;;4990844;28;20714;-44
2023/09/22 02:55:14;;;;;;;1.63;1.00;;;21.80;61.80;;;;;;4989528;28;20207;-44
2023/09/22 02:57:42;;;;;;;0.93;0.80;;;21.80;61.90;;;;;;4990751;28;20294;-45
2023/09/22 03:00:17;;;;;;;1.10;0.83;;;21.70;61.50;;;;;;4989669;28;20237;-45
2023/09/22 03:02:43;;;;;;;2.10;1.00;;;21.60;61.60;;;;;;4990767;28;20457;-45
2023/09/22 03:05:10;;;;;;;2.30;1.00;;;21.50;61.60;;;;;;4992141;28;20446;-44
2023/09/22 03:07:35;;;;;;;3.27;1.13;;;21.40;61.60;;;;;;4991912;28;20205;-45
2023/09/22 03:10:05;;;;;;;0.93;0.80;;;21.40;62.00;;;;;;4987638;28;20536;-46
2023/09/22 03:12:30;;;;;;;0.80;0.80;;;21.40;62.30;;;;;;4992912;28;20238;-44
2023/09/22 03:14:56;;;;;;;4.23;1.10;;;21.50;62.10;;;;;;4992306;28;20461;-46
2023/09/22 03:17:21;;;;;;;2.07;1.43;;;21.60;61.80;;;;;;4994138;28;20646;-47
2023/09/22 03:19:47;;;;;;;4.00;1.17;;;21.60;61.60;;;;;;4992887;28;20222;-43
2023/09/22 03:22:12;;;;;;;2.20;0.97;;;21.70;61.70;;;;;;4994234;28;20812;-44
2023/09/22 03:24:38;;;;;;;1.23;0.83;;;21.70;61.60;;;;;;4990544;28;20647;-44
2023/09/22 03:27:03;;;;;;;1.20;1.10;;;21.80;61.60;;;;;;4993273;28;20548;-45
2023/09/22 03:29:29;;;;;;;2.03;1.00;;;21.70;61.00;;;;;;4994812;28;20288;-44
2023/09/22 03:31:55;;;;;;;1.60;1.00;;;21.60;60.90;;;;;;4994614;28;20195;-45
2023/09/22 03:34:21;;;;;;;1.30;1.20;;;21.60;61.50;;;;;;4993293;28;20277;-45
2023/09/22 03:36:49;;;;;;;2.37;1.10;;;21.50;61.70;;;;;;4994690;28;20274;-46
2023/09/22 03:39:15;;;;;;;1.23;1.10;;;21.50;61.70;;;;;;4992420;28;20524;-44
2023/09/22 03:41:42;;;;;;;1.53;1.07;;;21.40;61.80;;;;;;4990755;28;20446;-44
2023/09/22 03:44:08;;;;;;;1.07;0.90;;;21.40;61.90;;;;;;4992189;28;21312;-45
2023/09/22 03:46:34;;;;;;;1.13;1.03;;;21.30;62.20;;;;;;4994688;28;20450;-44
2023/09/22 03:48:59;;;;;;;15.00;2.07;;;21.30;62.30;;;;;;4994246;28;20524;-43
2023/09/22 03:51:25;;;;;;;1.40;1.30;;;21.30;62.50;;;;;;4994891;28;20680;-45
2023/09/22 03:53:50;;;;;;;1.47;1.03;;;21.30;62.40;;;;;;4993972;28;20680;-46
2023/09/22 03:56:16;;;;;;;2.10;1.10;;;21.30;62.30;;;;;;4990166;28;20252;-45
2023/09/22 03:58:42;;;;;;;1.83;1.17;;;21.40;62.20;;;;;;4993316;28;20325;-44
2023/09/22 04:01:11;;;;;;;2.93;1.53;;;21.40;61.80;;;;;;4990315;28;20186;-44
2023/09/22 04:03:36;;;;;;;1.87;1.23;;;21.40;61.40;;;;;;4993688;28;20282;-45
2023/09/22 04:06:04;;;;;;;1.63;1.10;;;21.40;61.30;;;;;;4990603;28;20873;-44
2023/09/22 04:08:30;;;;;;;1.37;1.17;;;21.40;61.10;;;;;;4993012;28;20302;-44
2023/09/22 04:10:56;;;;;;;1.43;1.20;;;21.40;60.80;;;;;;4986778;28;20889;-44
2023/09/22 04:13:24;;;;;;;3.80;1.23;;;21.30;61.00;;;;;;4989855;28;20290;-45
2023/09/22 04:16:00;;;;;;;1.20;1.10;;;21.40;61.10;;;;;;4987159;28;20199;-45
2023/09/22 04:18:29;;;;;;;0.90;0.83;;;21.50;61.00;;;;;;4989323;28;20568;-44
2023/09/22 04:21:01;;;;;;;3.17;1.20;;;21.50;60.90;;;;;;4995790;28;20528;-45
2023/09/22 04:23:27;;;;;;;0.93;0.90;;;21.50;61.10;;;;;;4990949;28;20997;-45
2023/09/22 04:25:59;;;;;;;3.47;1.20;;;21.40;60.90;;;;;;4989022;28;20476;-45
2023/09/22 04:28:25;;;;;;;1.60;1.20;;;21.20;60.50;;;;;;4991245;28;20568;-45
2023/09/22 04:30:51;;;;;;;4.20;1.77;;;21.20;60.70;;;;;;4989427;28;20453;-47
2023/09/22 04:33:17;;;;;;;2.07;1.33;;;21.10;61.20;;;;;;4990486;28;20218;-45
2023/09/22 04:35:43;;;;;;;1.60;1.03;;;21.40;63.20;;;;;;4992858;28;21000;-44
2023/09/22 04:38:09;;;;;;;1.20;1.10;;;21.70;63.10;;;;;;4988528;28;20455;-44
2023/09/22 04:40:36;;;;;;;2.30;1.10;;;21.80;61.10;;;;;;4992290;28;20270;-44
2023/09/22 04:43:05;;;;;;;1.40;1.20;;;22.00;61.60;;;;;;4993407;28;20438;-44
2023/09/22 04:45:30;;;;;;;1.33;0.80;;;22.20;61.70;;;;;;4992799;28;20450;-45
2023/09/22 04:47:56;;;;;;;1.07;0.97;;;22.40;61.40;;;;;;4993781;28;20944;-44
2023/09/22 04:50:22;;;;;;;1.00;0.90;;;22.50;61.20;;;;;;4988633;28;20198;-44
2023/09/22 04:52:49;;;;;;;1.37;1.00;;;22.60;61.10;;;;;;4993815;28;20732;-45
2023/09/22 04:55:16;;;;;;;1.03;0.93;;;22.80;60.80;;;;;;4998355;28;20457;-46
2023/09/22 04:57:42;;;;;;;1.27;1.00;;;23.00;60.00;;;;;;4993890;28;20441;-45
2023/09/22 05:00:15;;;;;;;1.10;0.97;;;23.10;59.70;;;;;;4994021;28;20477;-47
2023/09/22 05:02:41;;;;;;;1.37;1.20;;;23.10;58.90;;;;;;4988605;28;20450;-47
2023/09/22 05:05:08;;;;;;;1.37;1.17;;;23.20;59.10;;;;;;4992107;28;20450;-46
2023/09/22 05:07:34;;;;;;;0.93;0.90;;;23.20;58.50;;;;;;4990790;28;20570;-45
2023/09/22 05:09:59;;;;;;;1.13;1.03;;;23.20;58.10;;;;;;4992165;28;20438;-46
2023/09/22 05:12:25;;;;;;;2.67;1.20;;;23.30;57.90;;;;;;4990720;28;20504;-44
2023/09/22 05:14:52;;;;;;;1.10;1.00;;;23.30;57.40;;;;;;4988257;28;20191;-44
2023/09/22 05:17:18;;;;;;;1.00;0.87;;;23.30;56.70;;;;;;4989212;28;20456;-46
2023/09/22 05:19:44;;;;;;;5.70;1.40;;;23.10;56.20;;;;;;4989717;28;20986;-45
2023/09/22 05:22:10;;;;;;;4.93;1.37;;;22.90;57.40;;;;;;4988812;28;20199;-46
2023/09/22 05:24:36;;;;;;;6.40;1.30;;;23.00;57.60;;;;;;4991379;28;20469;-45
2023/09/22 05:27:04;;;;;;;1.20;1.10;;;22.90;57.60;;;;;;4988127;28;20976;-46
2023/09/22 05:29:29;;;;;;;2.40;1.20;;;22.70;57.50;;;;;;4991096;28;20853;-46
2023/09/22 05:31:55;;;;;;;1.50;1.40;;;22.00;58.30;;;;;;4991551;28;20492;-45
2023/09/22 05:34:21;;;;;;;1.53;1.20;;;22.00;59.00;;;;;;4988315;28;20195;-45
2023/09/22 05:36:46;;;;;;;1.40;1.30;;;22.10;58.70;;;;;;4989282;28;20813;-44
2023/09/22 05:39:12;;;;;;;1.40;1.23;;;22.10;57.90;;;;;;4990790;28;20222;-45
2023/09/22 05:41:38;;;;;;;1.30;1.20;;;21.60;59.10;;;;;;4982389;28;20298;-46
2023/09/22 05:44:04;;;;;;;2.27;1.60;;;21.30;60.60;;;;;;4981375;28;20982;-45
2023/09/22 05:46:31;;;;;;;2.20;1.03;;;21.20;60.70;;;;;;4981476;28;20249;-45
2023/09/22 05:48:57;;;;;;;2.30;1.10;;;21.10;61.00;;;;;;4986453;28;20973;-44
2023/09/22 05:51:23;;;;;;;1.97;1.30;;;21.20;60.80;;;;;;4989477;28;20454;-47
2023/09/22 05:53:51;;;;;;;1.63;1.30;;;21.20;60.70;;;;;;4990415;28;20456;-45
2023/09/22 05:56:17;;;;;;;1.30;1.20;;;20.90;61.30;;;;;;4989814;28;20203;-44
2023/09/22 05:58:42;;;;;;;1.43;1.33;;;20.90;62.30;;;;;;4986404;28;21003;-45
2023/09/22 06:01:09;;;;;;;1.27;1.17;;;21.10;61.80;;;;;;4991183;28;20199;-45
2023/09/22 06:03:40;;;;;;;1.33;1.23;;;21.20;61.30;;;;;;4988072;28;20611;-44
2023/09/22 06:06:10;;;;;;;1.30;1.20;;;21.40;60.60;;;;;;4986698;28;20507;-45
2023/09/22 06:08:37;;;;;;;2.27;1.10;;;21.60;59.70;;;;;;4990639;28;20465;-46
2023/09/22 06:11:06;;;;;;;1.23;1.13;;;21.70;59.50;;;;;;4989563;28;20520;-46
2023/09/22 06:13:33;;;;;;;2.97;1.40;;;21.80;59.60;;;;;;4982369;28;20446;-45
2023/09/22 06:15:59;;;;;;;1.00;0.90;;;21.90;59.30;;;;;;4986470;28;20449;-44
2023/09/22 06:18:25;;;;;;;2.73;1.33;;;22.00;59.00;;;;;;4990398;28;20500;-46
2023/09/22 06:20:58;;;;;;;5.10;1.77;;;22.10;58.70;;;;;;4988879;28;20190;-45
2023/09/22 06:23:24;;;;;;;3.90;1.67;;;22.20;58.60;;;;;;4991084;28;20202;-44
2023/09/22 06:25:56;;;;;;;4.10;1.20;;;22.20;58.50;;;;;;4990686;28;20841;-45
2023/09/22 06:28:22;;;;;;;1.27;1.17;;;22.30;58.40;;;;;;4990774;28;20446;-46
2023/09/22 06:30:48;;;;;;;2.10;1.50;;;22.20;57.70;;;;;;4991607;28;20492;-44
2023/09/22 06:33:16;;;;;;;4.33;1.60;;;21.90;59.40;;;;;;4971863;28;20198;-44
2023/09/22 06:35:45;;;;;;;2.70;1.47;;;22.00;59.70;;;;;;4989432;28;20444;-46
2023/09/22 06:38:11;;;;;;;1.27;1.10;;;22.00;59.20;;;;;;4989667;28;20545;-46
2023/09/22 06:40:38;;;;;;;2.70;1.50;;;22.00;59.30;;;;;;4989070;28;20525;-45
2023/09/22 06:43:08;;;;;;;1.97;1.27;;;22.10;59.10;;;;;;4982419;28;20666;-45
2023/09/22 06:45:36;;;;;;;1.07;0.90;;;22.20;59.10;;;;;;4986569;28;20441;-44
2023/09/22 06:48:07;;;;;;;1.53;1.10;;;22.10;58.60;;;;;;4988027;28;20821;-46
2023/09/22 06:50:34;;;;;;;2.33;1.33;;;22.00;59.10;;;;;;4986453;28;20469;-45
2023/09/22 06:53:00;;;;;;;2.10;1.50;;;22.00;59.20;;;;;;4985534;28;20541;-44
2023/09/22 06:55:25;;;;;;;1.30;1.20;;;21.90;59.70;;;;;;4988100;28;20524;-43
2023/09/22 06:57:52;;;;;;;2.30;1.37;;;21.90;59.70;;;;;;4991339;28;20198;-45
2023/09/22 07:00:18;;;;;;;1.53;1.17;;;21.90;60.00;;;;;;4989482;28;20230;-45
2023/09/22 07:02:47;;;;;;;1.87;1.10;;;21.90;60.20;;;;;;4987950;28;20543;-44
2023/09/22 07:05:13;;;;;;;4.70;1.43;;;21.80;60.70;;;;;;4984213;28;20203;-44
2023/09/22 07:07:39;;;;;;;3.47;2.00;;;21.70;60.90;;;;;;4983107;28;20476;-44
2023/09/22 07:10:10;;;;;;;1.53;1.23;;;21.60;61.30;;;;;;4987382;28;20437;-45
2023/09/22 07:12:38;;;;;;;2.07;1.27;;;21.30;62.00;;;;;;4986895;28;20815;-43
2023/09/22 07:15:04;;;;;;;2.60;1.10;;;21.10;62.30;;;;;;4991379;28;20459;-44
2023/09/22 07:17:31;;;;;;;1.40;1.20;;;21.10;62.50;;;;;;4989330;28;20503;-47
2023/09/22 07:20:08;;;;;;;1.00;0.90;;;21.30;62.00;;;;;;4984883;28;20525;-49
2023/09/22 07:22:34;;;;;;;3.57;1.50;;;21.20;61.20;;;;;;4984337;28;20448;-44
2023/09/22 07:25:00;;;;;;;1.40;1.23;;;20.70;62.70;;;;;;4989441;28;20478;-44
2023/09/22 07:27:26;;;;;;;1.50;1.20;;;20.40;64.60;;;;;;4990807;28;20446;-43
2023/09/22 07:29:52;;;;;;;2.50;1.40;;;20.50;64.90;;;;;;4995842;28;20441;-46
2023/09/22 07:32:18;;;;;;;2.43;1.47;;;20.40;65.50;;;;;;4990195;28;20530;-45
2023/09/22 07:34:45;;;;;;;3.80;1.90;;;20.50;65.80;;;;;;4988469;28;20248;-44
2023/09/22 07:37:11;;;;;;;2.90;1.17;;;20.50;65.60;;;;;;4990012;28;20437;-43
2023/09/22 07:39:38;;;;;;;1.87;1.30;;;20.40;66.70;;;;;;4990890;28;20500;-46
2023/09/22 07:42:04;;;;;;;2.00;1.30;;;20.60;67.20;;;;;;4991526;28;20433;-46
2023/09/22 07:44:30;;;;;;;2.30;1.30;;;20.60;67.10;;;;;;4989848;28;20447;-47
2023/09/22 07:46:58;;;;;;;1.40;1.30;;;20.80;67.20;;;;;;4990252;28;20832;-44
2023/09/22 07:49:25;;;;;;;2.50;1.27;;;20.90;67.10;;;;;;4988911;28;20819;-45
2023/09/22 07:51:51;;;;;;;1.77;1.30;;;20.80;67.50;;;;;;4990635;28;20809;-43
2023/09/22 07:54:18;;;;;;;2.10;1.50;;;20.50;68.00;;;;;;4994234;28;20533;-44
2023/09/22 07:56:46;;;;;;;2.67;1.50;;;20.50;68.30;;;;;;4991361;28;20477;-44
2023/09/22 07:59:13;;;;;;;3.20;1.80;;;20.60;67.80;;;;;;4989883;28;20520;-45
2023/09/22 08:01:42;;;;;;;2.17;1.60;;;20.80;67.20;;;;;;4987666;28;20980;-44
2023/09/22 08:04:08;;;;;;;3.30;1.50;;;20.80;66.20;;;;;;4990999;28;21342;-45
2023/09/22 08:06:34;;;;;;;1.23;1.13;;;20.70;67.00;;;;;;4992074;28;20465;-44
2023/09/22 08:09:00;;;;;;;1.90;1.07;;;20.90;66.90;;;;;;4990694;28;20450;-44
2023/09/22 08:11:26;;;;;;;2.90;1.23;;;21.20;66.00;;;;;;4990301;28;20457;-44
2023/09/22 08:13:51;;;;;;;1.63;1.40;;;21.30;65.10;;;;;;4987514;28;20457;-45
2023/09/22 08:16:18;;;;;;;2.80;1.47;;;21.40;65.00;;;;;;4991843;28;20277;-45
2023/09/22 08:18:44;;;;;;;2.60;1.67;;;21.30;65.10;;;;;;4989817;28;20342;-46
2023/09/22 08:21:10;;;;;;;6.60;1.40;;;21.40;65.20;;;;;;4992020;28;20536;-45
2023/09/22 08:23:36;;;;;;;0.90;0.90;;;21.20;65.10;;;;;;4992202;28;20589;-48
2023/09/22 08:26:17;;;;;;;1.77;1.20;;;21.20;65.40;;;;;;4988076;28;20484;-44
2023/09/22 08:28:45;;;;;;;1.60;1.40;;;21.30;65.30;;;;;;4992593;28;21039;-45
2023/09/22 08:31:11;;;;;;;1.00;1.00;;;21.40;64.90;;;;;;4986913;28;20854;-45
2023/09/22 08:33:38;;;;;;;3.37;1.07;;;21.50;64.10;;;;;;4991206;28;20449;-44
2023/09/22 08:36:04;;;;;;;2.00;0.67;;;21.40;64.10;;;;;;4993958;28;20441;-44
2023/09/22 08:38:32;;;;;;;1.27;0.90;;;21.50;64.20;;;;;;4992895;28;20488;-45
2023/09/22 08:41:04;;;;;;;1.87;1.33;;;21.50;64.00;;;;;;4986842;28;20753;-45
2023/09/22 08:43:32;;;;;;;1.13;1.03;;;21.70;64.20;;;;;;4992383;28;20449;-44
2023/09/22 08:46:00;;;;;;;1.13;1.10;;;21.70;63.30;;;;;;4992286;28;20438;-46
2023/09/22 08:48:26;;;;;;;1.50;1.23;;;21.70;63.50;;;;;;4983721;28;20439;-44
2023/09/22 08:50:51;;;;;;;1.00;0.80;;;21.70;63.50;;;;;;4988690;28;20540;-46
2023/09/22 08:53:17;;;;;;;1.27;1.00;;;21.90;63.90;;;;;;4993379;28;20690;-44
2023/09/22 08:55:43;;;;;;;1.83;1.53;;;21.80;64.50;;;;;;4990640;28;20211;-43
2023/09/22 08:58:08;;;;;;;4.90;1.93;;;21.90;64.50;;;;;;4991055;28;20241;-46
2023/09/22 09:00:35;;;;;;;2.17;1.13;;;22.00;64.30;;;;;;4989334;28;20240;-47
2023/09/22 09:03:10;;;;;;;1.30;1.20;;;21.70;61.60;;;;;;4986485;28;20198;-47
2023/09/22 09:05:39;;;;;;;1.40;1.30;;;21.90;63.60;;;;;;4984581;28;20449;-44
2023/09/22 09:08:18;;;;;;;1.00;0.90;;;21.90;63.90;;;;;;4993742;28;20469;-45
2023/09/22 09:10:46;;;;;;;1.17;1.00;;;21.80;62.30;;;;;;4991799;28;20515;-45
2023/09/22 09:13:16;;;;;;;2.33;1.50;;;22.00;63.10;;;;;;4983905;28;20492;-45
2023/09/22 09:15:45;;;;;;;1.13;1.03;;;22.20;63.00;;;;;;4991377;28;20537;-45
2023/09/22 09:18:13;;;;;;;1.63;1.10;;;22.30;62.00;;;;;;4988559;28;20816;-47
2023/09/22 09:20:43;;;;;;;2.87;1.23;;;22.20;61.00;;;;;;4985640;28;21099;-44
2023/09/22 09:23:17;;;;;;;1.40;1.10;;;22.00;62.30;;;;;;4986323;28;20441;-46
2023/09/22 09:25:53;;;;;;;2.73;1.37;;;21.90;63.10;;;;;;4987015;28;20481;-46
2023/09/22 09:28:18;;;;;;;2.40;1.33;;;21.90;63.00;;;;;;4987645;28;20445;-45
2023/09/22 09:30:52;;;;;;;2.10;1.00;;;22.10;63.00;;;;;;4991257;28;20438;-45
2023/09/22 09:33:25;;;;;;;1.40;1.30;;;22.30;62.40;;;;;;4989107;28;20718;-45
2023/09/22 09:35:51;;;;;;;2.03;1.40;;;22.50;62.40;;;;;;4989052;28;20446;-44
2023/09/22 09:38:20;;;;;;;6.17;1.60;;;22.50;61.30;;;;;;4982255;28;20970;-44
2023/09/22 09:40:45;;;;;;;5.20;1.60;;;22.50;60.60;;;;;;4991512;28;20449;-44
2023/09/22 09:43:12;;;;;;;1.73;1.30;;;22.60;60.50;;;;;;4982716;28;20443;-44
2023/09/22 09:45:50;;;;;;;0.90;0.87;;;22.70;59.60;;;;;;4984439;28;20187;-45
2023/09/22 09:48:18;;;;;;;1.63;1.30;;;22.70;59.50;;;;;;4988594;28;20453;-45
2023/09/22 09:50:52;;;;;;;2.73;1.00;;;22.80;59.70;;;;;;4988587;28;21107;-46
2023/09/22 09:53:37;;;;;;;3.30;1.43;;;22.90;59.60;;;;;;4982276;28;20454;-48
2023/09/22 09:56:03;;;;;;;1.10;0.87;;;22.90;59.50;;;;;;4984653;28;20485;-45
2023/09/22 09:58:32;;;;;;;1.87;1.60;;;22.80;59.00;;;;;;4983606;28;20482;-46
2023/09/22 10:01:00;;;;;;;2.50;1.30;;;22.80;59.20;;;;;;4984202;28;20441;-44
2023/09/22 10:03:28;;;;;;;1.83;1.30;;;22.70;59.10;;;;;;4989263;28;20465;-47
2023/09/22 10:05:56;;;;;;;2.20;1.23;;;22.50;58.90;;;;;;4990514;28;20438;-48
2023/09/22 10:08:27;;;;;;;3.00;1.20;;;22.50;58.70;;;;;;4988362;28;20464;-46
2023/09/22 10:11:05;;;;;;;2.63;1.10;;;22.50;59.20;;;;;;4985105;28;20550;-47
2023/09/22 10:13:37;;;;;;;38.07;5.70;;;22.60;59.60;;;;;;4990480;28;20476;-46
2023/09/22 10:16:06;;;;;;;4.80;1.23;;;22.60;60.60;;;;;;4990768;28;20812;-45
2023/09/22 10:18:49;;;;;;;1.70;1.20;;;22.70;59.90;;;;;;4991070;28;20846;-48
2023/09/22 10:21:39;;;;;;;2.70;1.50;;;22.80;60.30;;;;;;4989785;28;20529;-46
2023/09/22 10:24:23;;;;;;;1.90;1.50;;;22.40;61.40;;;;;;4989671;28;20484;-47
2023/09/22 10:26:59;;;;;;;1.07;0.97;;;22.50;61.90;;;;;;4987445;28;20492;-48
2023/09/22 10:29:34;;;;;;;1.87;1.27;;;22.50;61.30;;;;;;4990679;28;20449;-46
2023/09/22 10:32:18;;;;;;;2.20;1.40;;;22.60;61.30;;;;;;4983421;28;20468;-45
2023/09/22 10:34:54;;;;;;;2.80;1.30;;;22.40;62.50;;;;;;4977420;28;20441;-47
2023/09/22 10:37:25;;;;;;;2.40;1.20;;;22.30;62.30;;;;;;4983154;28;20445;-45
2023/09/22 10:39:55;;;;;;;2.60;1.03;;;22.40;62.90;;;;;;4984873;28;20486;-48
2023/09/22 10:42:22;;;;;;;2.57;1.40;;;22.70;61.00;;;;;;4986994;28;20457;-45
2023/09/22 10:45:05;;;;;;;1.40;1.10;;;23.10;60.20;;;;;;4985344;28;20509;-46
2023/09/22 10:47:49;;;;;;;1.40;1.20;;;23.20;58.40;;;;;;4987749;28;20446;-47
2023/09/22 10:50:24;;;;;;;3.80;0.90;;;23.40;58.80;;;;;;4991100;28;20813;-45
2023/09/22 10:53:03;;;;;;;2.80;1.20;;;23.50;57.30;;;;;;4990124;28;20437;-45
2023/09/22 10:55:36;;;;;;;3.40;1.30;;;23.60;56.20;;;;;;4989995;28;20524;-46
2023/09/22 10:58:04;;;;;;;1.40;1.30;;;23.80;58.00;;;;;;4989626;28;20445;-46
2023/09/22 11:00:32;;;;;;;1.23;1.13;;;24.00;58.00;;;;;;4990794;28;20477;-49
2023/09/22 11:03:24;;;;;;;2.50;1.40;;;24.20;55.90;;;;;;4988535;28;20795;-45
2023/09/22 11:06:10;;;;;;;2.83;1.27;;;24.10;54.50;;;;;;4985597;28;21554;-46
2023/09/22 11:08:50;;;;;;;5.50;1.23;;;23.90;55.60;;;;;;4982847;28;20481;-46
2023/09/22 11:11:17;;;;;;;1.53;1.43;;;23.90;56.10;;;;;;4984927;28;22646;-45
2023/09/22 11:13:51;;;;;;;2.60;1.03;;;24.00;56.60;;;;;;4987942;28;20456;-44
2023/09/22 11:16:19;;;;;;;1.90;1.00;;;24.00;55.30;;;;;;4990631;28;20465;-46
2023/09/22 11:18:45;;;;;;;1.20;0.77;;;23.80;55.40;;;;;;4987899;28;20474;-47
2023/09/22 11:21:12;;;;;;;1.93;1.00;;;23.90;55.60;;;;;;4988670;28;20791;-45
2023/09/22 11:23:39;;;;;;;1.10;0.90;;;23.80;54.60;;;;;;4991214;28;20449;-46
2023/09/22 11:26:09;;;;;;;2.83;1.17;;;23.60;54.50;;;;;;4988296;28;20477;-46
2023/09/22 11:28:39;;;;;;;1.90;1.00;;;23.70;53.90;;;;;;4992533;28;20445;-45
2023/09/22 11:31:08;;;;;;;1.73;1.30;;;23.60;53.70;;;;;;4989022;28;20802;-46
2023/09/22 11:33:36;;;;;;;1.83;1.07;;;23.50;53.60;;;;;;4990532;28;20445;-47
2023/09/22 11:36:03;;;;;;;1.00;0.87;;;23.30;53.00;;;;;;4982778;28;20459;-47
2023/09/22 11:38:31;;;;;;;1.23;1.07;;;23.20;53.80;;;;;;4988803;28;20527;-47
2023/09/22 11:41:10;;;;;;;1.00;0.90;;;23.20;53.60;;;;;;4994372;28;20453;-46
2023/09/22 11:43:54;;;;;;;14.70;1.57;;;23.40;53.60;;;;;;4991180;28;20445;-45
2023/09/22 11:46:26;;;;;;;1.57;1.10;;;23.30;52.10;;;;;;4992334;28;20512;-47
2023/09/22 11:49:01;;;;;;;1.00;0.90;;;23.50;52.80;;;;;;4989960;28;20731;-48
2023/09/22 11:52:07;;;;;;;1.40;1.30;;;23.50;51.70;;;;;;4993130;28;20453;-46
2023/09/22 11:54:34;;;;;;;1.80;1.10;;;23.60;51.50;;;;;;4990856;28;20457;-46
2023/09/22 11:57:00;;;;;;;2.43;0.97;;;23.60;51.30;;;;;;4993141;28;20441;-46
2023/09/22 11:59:36;;;;;;;1.10;0.77;;;23.50;50.80;;;;;;4989272;28;20508;-45
2023/09/22 12:02:04;;;;;;;2.70;1.50;;;23.60;50.60;;;;;;4988257;28;20187;-46
2023/09/22 12:04:30;;;;;;;0.90;0.70;;;23.70;50.00;;;;;;4992350;28;20456;-50
2023/09/22 12:06:56;;;;;;;1.17;1.07;;;23.70;48.70;;;;;;4987440;28;20892;-45
2023/09/22 12:09:21;;;;;;;1.00;0.90;;;23.80;48.70;;;;;;4984325;28;20434;-46
2023/09/22 12:11:48;;;;;;;1.93;0.70;;;23.80;48.00;;;;;;4975914;28;20328;-49
2023/09/22 12:14:14;;;;;;;2.60;1.03;;;23.80;48.80;;;;;;4981296;28;20202;-45
2023/09/22 12:16:40;;;;;;;1.93;1.10;;;24.00;48.20;;;;;;4985226;28;20507;-50
2023/09/22 12:19:06;;;;;;;2.47;0.77;;;24.00;48.00;;;;;;4989258;28;20926;-48
2023/09/22 12:21:32;;;;;;;8.00;1.10;;;24.00;47.70;;;;;;4992595;28;20469;-45
2023/09/22 12:23:59;;;;;;;1.13;1.00;;;24.10;47.30;;;;;;4987808;28;20240;-47
2023/09/22 12:26:25;;;;;;;1.27;0.90;;;24.30;47.40;;;;;;4992434;28;21476;-45
2023/09/22 12:28:51;;;;;;;2.83;1.03;;;24.30;46.40;;;;;;4991435;28;20431;-45
2023/09/22 12:31:18;;;;;;;1.33;1.07;;;24.30;46.10;;;;;;4987470;28;20435;-47
2023/09/22 12:33:47;;;;;;;1.83;0.90;;;24.00;45.00;;;;;;4986623;28;20206;-46
2023/09/22 12:36:15;;;;;;;2.37;1.03;;;23.90;45.70;;;;;;4991856;28;20449;-48
2023/09/22 12:38:44;;;;;;;1.90;1.10;;;23.80;46.30;;;;;;4987041;28;20478;-45
2023/09/22 12:41:10;;;;;;;1.40;0.90;;;23.70;45.80;;;;;;4991482;28;20461;-46
2023/09/22 12:43:36;;;;;;;1.33;1.07;;;23.60;45.70;;;;;;4991346;28;20446;-49
2023/09/22 12:46:06;;;;;;;1.83;1.00;;;23.40;46.70;;;;;;4987119;28;20446;-45
2023/09/22 12:48:31;;;;;;;2.30;1.03;;;23.70;46.90;;;;;;4988027;28;20500;-46
2023/09/22 12:50:57;;;;;;;2.20;1.10;;;23.70;46.50;;;;;;4990691;28;20825;-45